sensor_id;sensor_type;location;lat;lon;timestamp;P1;durP1;ratioP1;P2;durP2;ratioP2
77280;SDS011;66339;47.262;17.144;2023-02-04T00:01:15;9.50;;;4.70;;
77280;SDS011;66339;47.262;17.144;2023-02-04T00:03:48;9.23;;;4.82;;
77280;SDS011;66339;47.262;17.144;2023-02-04T00:06:16;11.25;;;5.53;;
77280;SDS011;66339;47.262;17.144;2023-02-04T00:08:43;11.77;;;4.95;;
77280;SDS011;66339;47.262;17.144;2023-02-04T00:11:13;9.25;;;4.93;;
77280;SDS011;66339;47.262;17.144;2023-02-04T00:13:40;9.63;;;4.55;;
77280;SDS011;66339;47.262;17.144;2023-02-04T00:16:10;12.50;;;5.00;;
77280;SDS011;66339;47.262;17.144;2023-02-04T00:18:41;9.00;;;4.70;;
77280;SDS011;66339;47.262;17.144;2023-02-04T00:21:11;10.07;;;4.97;;
77280;SDS011;66339;47.262;17.144;2023-02-04T00:23:41;10.48;;;4.85;;
77280;SDS011;66339;47.262;17.144;2023-02-04T00:26:09;10.73;;;5.03;;
77280;SDS011;66339;47.262;17.144;2023-02-04T00:28:39;13.15;;;5.30;;
77280;SDS011;66339;47.262;17.144;2023-02-04T00:31:09;8.73;;;4.57;;
77280;SDS011;66339;47.262;17.144;2023-02-04T00:33:39;10.13;;;4.50;;
77280;SDS011;66339;47.262;17.144;2023-02-04T00:36:06;10.30;;;4.62;;
77280;SDS011;66339;47.262;17.144;2023-02-04T00:38:36;8.55;;;4.43;;
77280;SDS011;66339;47.262;17.144;2023-02-04T00:41:04;9.10;;;4.32;;
77280;SDS011;66339;47.262;17.144;2023-02-04T00:43:34;8.57;;;4.60;;
77280;SDS011;66339;47.262;17.144;2023-02-04T00:46:07;8.63;;;4.75;;
77280;SDS011;66339;47.262;17.144;2023-02-04T00:48:34;8.73;;;4.20;;
77280;SDS011;66339;47.262;17.144;2023-02-04T00:51:04;8.55;;;4.28;;
77280;SDS011;66339;47.262;17.144;2023-02-04T00:53:31;9.68;;;4.22;;
77280;SDS011;66339;47.262;17.144;2023-02-04T00:56:01;8.35;;;4.30;;
77280;SDS011;66339;47.262;17.144;2023-02-04T00:58:34;8.23;;;4.30;;
77280;SDS011;66339;47.262;17.144;2023-02-04T01:01:02;8.73;;;4.10;;
77280;SDS011;66339;47.262;17.144;2023-02-04T01:03:32;8.85;;;4.15;;
77280;SDS011;66339;47.262;17.144;2023-02-04T01:05:59;8.40;;;4.32;;
77280;SDS011;66339;47.262;17.144;2023-02-04T01:08:26;8.27;;;3.65;;
77280;SDS011;66339;47.262;17.144;2023-02-04T01:10:55;8.18;;;3.95;;
77280;SDS011;66339;47.262;17.144;2023-02-04T01:13:31;8.63;;;3.80;;
77280;SDS011;66339;47.262;17.144;2023-02-04T01:16:01;7.47;;;3.87;;
77280;SDS011;66339;47.262;17.144;2023-02-04T01:18:31;7.80;;;4.07;;
77280;SDS011;66339;47.262;17.144;2023-02-04T01:20:58;10.10;;;4.10;;
77280;SDS011;66339;47.262;17.144;2023-02-04T01:23:25;7.93;;;3.92;;
77280;SDS011;66339;47.262;17.144;2023-02-04T01:25:59;7.28;;;4.03;;
77280;SDS011;66339;47.262;17.144;2023-02-04T01:28:32;7.10;;;3.58;;
77280;SDS011;66339;47.262;17.144;2023-02-04T01:31:01;8.23;;;4.00;;
77280;SDS011;66339;47.262;17.144;2023-02-04T01:33:29;7.80;;;4.15;;
77280;SDS011;66339;47.262;17.144;2023-02-04T01:35:56;6.68;;;3.55;;
77280;SDS011;66339;47.262;17.144;2023-02-04T01:38:23;9.00;;;3.75;;
77280;SDS011;66339;47.262;17.144;2023-02-04T01:40:56;6.97;;;3.60;;
77280;SDS011;66339;47.262;17.144;2023-02-04T01:43:26;6.70;;;3.53;;
77280;SDS011;66339;47.262;17.144;2023-02-04T01:45:54;7.45;;;3.53;;
77280;SDS011;66339;47.262;17.144;2023-02-04T01:48:21;9.50;;;3.72;;
77280;SDS011;66339;47.262;17.144;2023-02-04T01:50:50;9.07;;;4.07;;
77280;SDS011;66339;47.262;17.144;2023-02-04T01:53:23;6.63;;;3.10;;
77280;SDS011;66339;47.262;17.144;2023-02-04T01:55:57;8.05;;;3.90;;
77280;SDS011;66339;47.262;17.144;2023-02-04T01:58:28;5.78;;;3.12;;
77280;SDS011;66339;47.262;17.144;2023-02-04T02:01:01;9.95;;;3.95;;
77280;SDS011;66339;47.262;17.144;2023-02-04T02:03:35;7.22;;;3.87;;
77280;SDS011;66339;47.262;17.144;2023-02-04T02:06:06;7.55;;;3.40;;
77280;SDS011;66339;47.262;17.144;2023-02-04T02:08:37;7.15;;;3.20;;
77280;SDS011;66339;47.262;17.144;2023-02-04T02:11:08;8.07;;;3.80;;
77280;SDS011;66339;47.262;17.144;2023-02-04T02:13:35;6.75;;;3.33;;
77280;SDS011;66339;47.262;17.144;2023-02-04T02:16:05;6.57;;;3.40;;
77280;SDS011;66339;47.262;17.144;2023-02-04T02:18:36;6.15;;;3.10;;
77280;SDS011;66339;47.262;17.144;2023-02-04T02:21:04;6.68;;;3.00;;
77280;SDS011;66339;47.262;17.144;2023-02-04T02:23:44;6.20;;;3.42;;
77280;SDS011;66339;47.262;17.144;2023-02-04T02:26:17;6.28;;;3.00;;
77280;SDS011;66339;47.262;17.144;2023-02-04T02:28:46;6.50;;;3.10;;
77280;SDS011;66339;47.262;17.144;2023-02-04T02:31:17;6.37;;;3.35;;
77280;SDS011;66339;47.262;17.144;2023-02-04T02:33:49;5.15;;;3.08;;
77280;SDS011;66339;47.262;17.144;2023-02-04T02:36:19;6.70;;;3.53;;
77280;SDS011;66339;47.262;17.144;2023-02-04T02:38:53;6.68;;;3.20;;
77280;SDS011;66339;47.262;17.144;2023-02-04T02:41:20;5.65;;;2.95;;
77280;SDS011;66339;47.262;17.144;2023-02-04T02:43:47;5.47;;;3.10;;
77280;SDS011;66339;47.262;17.144;2023-02-04T02:46:17;5.78;;;3.03;;
77280;SDS011;66339;47.262;17.144;2023-02-04T02:48:47;6.28;;;3.08;;
77280;SDS011;66339;47.262;17.144;2023-02-04T02:51:14;7.15;;;3.47;;
77280;SDS011;66339;47.262;17.144;2023-02-04T02:53:48;6.57;;;3.30;;
77280;SDS011;66339;47.262;17.144;2023-02-04T02:56:16;5.62;;;2.62;;
77280;SDS011;66339;47.262;17.144;2023-02-04T02:58:48;5.97;;;3.05;;
77280;SDS011;66339;47.262;17.144;2023-02-04T03:01:18;7.25;;;2.85;;
77280;SDS011;66339;47.262;17.144;2023-02-04T03:03:48;5.55;;;2.97;;
77280;SDS011;66339;47.262;17.144;2023-02-04T03:06:20;6.75;;;2.80;;
77280;SDS011;66339;47.262;17.144;2023-02-04T03:08:54;4.95;;;2.90;;
77280;SDS011;66339;47.262;17.144;2023-02-04T03:11:26;4.47;;;2.70;;
77280;SDS011;66339;47.262;17.144;2023-02-04T03:13:58;6.47;;;2.95;;
77280;SDS011;66339;47.262;17.144;2023-02-04T03:16:27;5.37;;;2.83;;
77280;SDS011;66339;47.262;17.144;2023-02-04T03:18:55;6.68;;;3.03;;
77280;SDS011;66339;47.262;17.144;2023-02-04T03:21:27;7.68;;;2.65;;
77280;SDS011;66339;47.262;17.144;2023-02-04T03:23:57;6.43;;;2.80;;
77280;SDS011;66339;47.262;17.144;2023-02-04T03:26:25;6.47;;;2.95;;
77280;SDS011;66339;47.262;17.144;2023-02-04T03:28:53;6.60;;;3.20;;
77280;SDS011;66339;47.262;17.144;2023-02-04T03:31:24;7.55;;;3.03;;
77280;SDS011;66339;47.262;17.144;2023-02-04T03:33:52;5.90;;;2.80;;
77280;SDS011;66339;47.262;17.144;2023-02-04T03:36:22;6.15;;;3.08;;
77280;SDS011;66339;47.262;17.144;2023-02-04T03:38:49;6.55;;;3.10;;
77280;SDS011;66339;47.262;17.144;2023-02-04T03:41:19;5.22;;;2.80;;
77280;SDS011;66339;47.262;17.144;2023-02-04T03:43:46;5.72;;;2.80;;
77280;SDS011;66339;47.262;17.144;2023-02-04T03:46:13;5.93;;;2.90;;
77280;SDS011;66339;47.262;17.144;2023-02-04T03:48:44;6.00;;;2.60;;
77280;SDS011;66339;47.262;17.144;2023-02-04T03:51:14;5.35;;;2.80;;
77280;SDS011;66339;47.262;17.144;2023-02-04T03:53:47;5.57;;;2.75;;
77280;SDS011;66339;47.262;17.144;2023-02-04T03:56:14;4.50;;;2.22;;
77280;SDS011;66339;47.262;17.144;2023-02-04T03:58:47;8.60;;;3.00;;
77280;SDS011;66339;47.262;17.144;2023-02-04T04:01:17;6.12;;;3.00;;
77280;SDS011;66339;47.262;17.144;2023-02-04T04:03:45;5.65;;;2.80;;
77280;SDS011;66339;47.262;17.144;2023-02-04T04:06:14;5.05;;;2.55;;
77280;SDS011;66339;47.262;17.144;2023-02-04T04:08:42;6.95;;;3.25;;
77280;SDS011;66339;47.262;17.144;2023-02-04T04:11:09;7.28;;;3.17;;
77280;SDS011;66339;47.262;17.144;2023-02-04T04:13:40;5.55;;;2.70;;
77280;SDS011;66339;47.262;17.144;2023-02-04T04:16:10;5.25;;;2.72;;
77280;SDS011;66339;47.262;17.144;2023-02-04T04:18:44;6.12;;;2.83;;
77280;SDS011;66339;47.262;17.144;2023-02-04T04:21:14;4.07;;;2.25;;
77280;SDS011;66339;47.262;17.144;2023-02-04T04:23:44;4.93;;;2.60;;
77280;SDS011;66339;47.262;17.144;2023-02-04T04:26:12;6.03;;;2.80;;
77280;SDS011;66339;47.262;17.144;2023-02-04T04:28:39;4.18;;;2.25;;
77280;SDS011;66339;47.262;17.144;2023-02-04T04:31:06;5.03;;;2.22;;
77280;SDS011;66339;47.262;17.144;2023-02-04T04:33:33;5.40;;;2.72;;
77280;SDS011;66339;47.262;17.144;2023-02-04T04:36:04;5.50;;;2.67;;
77280;SDS011;66339;47.262;17.144;2023-02-04T04:38:33;4.78;;;2.33;;
77280;SDS011;66339;47.262;17.144;2023-02-04T04:41:00;4.30;;;2.22;;
77280;SDS011;66339;47.262;17.144;2023-02-04T04:43:27;4.75;;;2.50;;
77280;SDS011;66339;47.262;17.144;2023-02-04T04:45:54;5.35;;;2.85;;
77280;SDS011;66339;47.262;17.144;2023-02-04T04:48:21;6.07;;;2.58;;
77280;SDS011;66339;47.262;17.144;2023-02-04T04:50:48;5.55;;;2.75;;
77280;SDS011;66339;47.262;17.144;2023-02-04T04:53:16;4.90;;;2.35;;
77280;SDS011;66339;47.262;17.144;2023-02-04T04:55:43;6.22;;;2.72;;
77280;SDS011;66339;47.262;17.144;2023-02-04T04:58:13;5.40;;;2.65;;
77280;SDS011;66339;47.262;17.144;2023-02-04T05:00:40;5.15;;;2.60;;
77280;SDS011;66339;47.262;17.144;2023-02-04T05:03:10;3.22;;;2.20;;
77280;SDS011;66339;47.262;17.144;2023-02-04T05:05:41;5.32;;;2.33;;
77280;SDS011;66339;47.262;17.144;2023-02-04T05:08:08;4.30;;;2.03;;
77280;SDS011;66339;47.262;17.144;2023-02-04T05:10:35;4.75;;;2.65;;
77280;SDS011;66339;47.262;17.144;2023-02-04T05:13:02;4.87;;;2.00;;
77280;SDS011;66339;47.262;17.144;2023-02-04T05:15:32;4.25;;;2.37;;
77280;SDS011;66339;47.262;17.144;2023-02-04T05:18:00;4.43;;;2.33;;
77280;SDS011;66339;47.262;17.144;2023-02-04T05:20:30;4.68;;;2.30;;
77280;SDS011;66339;47.262;17.144;2023-02-04T05:23:01;3.92;;;2.35;;
77280;SDS011;66339;47.262;17.144;2023-02-04T05:25:31;3.80;;;2.28;;
77280;SDS011;66339;47.262;17.144;2023-02-04T05:28:01;4.47;;;2.35;;
77280;SDS011;66339;47.262;17.144;2023-02-04T05:30:30;4.30;;;2.30;;
77280;SDS011;66339;47.262;17.144;2023-02-04T05:32:59;6.65;;;2.22;;
77280;SDS011;66339;47.262;17.144;2023-02-04T05:35:27;5.10;;;2.40;;
77280;SDS011;66339;47.262;17.144;2023-02-04T05:38:00;3.78;;;1.80;;
77280;SDS011;66339;47.262;17.144;2023-02-04T05:40:30;4.40;;;1.95;;
77280;SDS011;66339;47.262;17.144;2023-02-04T05:42:58;3.45;;;2.10;;
77280;SDS011;66339;47.262;17.144;2023-02-04T05:45:28;4.12;;;2.10;;
77280;SDS011;66339;47.262;17.144;2023-02-04T05:47:55;5.95;;;2.10;;
77280;SDS011;66339;47.262;17.144;2023-02-04T05:50:25;4.10;;;1.90;;
77280;SDS011;66339;47.262;17.144;2023-02-04T05:52:52;5.15;;;2.20;;
77280;SDS011;66339;47.262;17.144;2023-02-04T05:55:19;4.30;;;1.87;;
77280;SDS011;66339;47.262;17.144;2023-02-04T05:57:59;3.75;;;1.80;;
77280;SDS011;66339;47.262;17.144;2023-02-04T06:00:26;3.90;;;1.95;;
77280;SDS011;66339;47.262;17.144;2023-02-04T06:03:03;3.00;;;1.70;;
77280;SDS011;66339;47.262;17.144;2023-02-04T06:05:31;4.22;;;2.30;;
77280;SDS011;66339;47.262;17.144;2023-02-04T06:08:01;3.65;;;2.03;;
77280;SDS011;66339;47.262;17.144;2023-02-04T06:10:32;3.67;;;2.00;;
77280;SDS011;66339;47.262;17.144;2023-02-04T06:12:59;6.62;;;2.50;;
77280;SDS011;66339;47.262;17.144;2023-02-04T06:15:27;8.07;;;2.10;;
77280;SDS011;66339;47.262;17.144;2023-02-04T06:17:55;5.30;;;2.33;;
77280;SDS011;66339;47.262;17.144;2023-02-04T06:20:23;3.58;;;1.80;;
77280;SDS011;66339;47.262;17.144;2023-02-04T06:22:50;3.83;;;1.62;;
77280;SDS011;66339;47.262;17.144;2023-02-04T06:25:17;6.30;;;1.90;;
77280;SDS011;66339;47.262;17.144;2023-02-04T06:27:44;6.80;;;1.90;;
77280;SDS011;66339;47.262;17.144;2023-02-04T06:30:11;4.40;;;1.73;;
77280;SDS011;66339;47.262;17.144;2023-02-04T06:32:39;6.30;;;2.10;;
77280;SDS011;66339;47.262;17.144;2023-02-04T06:35:07;8.40;;;2.20;;
77280;SDS011;66339;47.262;17.144;2023-02-04T06:37:38;3.85;;;1.80;;
77280;SDS011;66339;47.262;17.144;2023-02-04T06:40:09;6.45;;;1.87;;
77280;SDS011;66339;47.262;17.144;2023-02-04T06:42:37;7.55;;;2.00;;
77280;SDS011;66339;47.262;17.144;2023-02-04T06:45:03;5.43;;;1.75;;
77280;SDS011;66339;47.262;17.144;2023-02-04T06:47:33;4.60;;;1.77;;
77280;SDS011;66339;47.262;17.144;2023-02-04T06:50:06;5.87;;;1.83;;
77280;SDS011;66339;47.262;17.144;2023-02-04T06:52:40;6.87;;;1.90;;
77280;SDS011;66339;47.262;17.144;2023-02-04T06:55:07;5.50;;;1.90;;
77280;SDS011;66339;47.262;17.144;2023-02-04T06:57:34;5.78;;;1.95;;
77280;SDS011;66339;47.262;17.144;2023-02-04T07:00:04;6.60;;;1.73;;
77280;SDS011;66339;47.262;17.144;2023-02-04T07:02:32;6.47;;;1.90;;
77280;SDS011;66339;47.262;17.144;2023-02-04T07:04:59;8.57;;;1.90;;
77280;SDS011;66339;47.262;17.144;2023-02-04T07:07:26;6.50;;;1.75;;
77280;SDS011;66339;47.262;17.144;2023-02-04T07:09:52;3.50;;;1.60;;
77280;SDS011;66339;47.262;17.144;2023-02-04T07:12:19;5.70;;;1.80;;
77280;SDS011;66339;47.262;17.144;2023-02-04T07:14:50;7.87;;;1.55;;
77280;SDS011;66339;47.262;17.144;2023-02-04T07:17:16;2.47;;;1.35;;
77280;SDS011;66339;47.262;17.144;2023-02-04T07:19:46;7.80;;;1.90;;
77280;SDS011;66339;47.262;17.144;2023-02-04T07:22:19;3.87;;;1.55;;
77280;SDS011;66339;47.262;17.144;2023-02-04T07:24:50;3.92;;;1.70;;
77280;SDS011;66339;47.262;17.144;2023-02-04T07:27:20;7.65;;;1.95;;
77280;SDS011;66339;47.262;17.144;2023-02-04T07:29:50;6.82;;;2.03;;
77280;SDS011;66339;47.262;17.144;2023-02-04T07:32:17;7.30;;;1.80;;
77280;SDS011;66339;47.262;17.144;2023-02-04T07:34:44;8.02;;;2.00;;
77280;SDS011;66339;47.262;17.144;2023-02-04T07:37:11;4.72;;;1.65;;
77280;SDS011;66339;47.262;17.144;2023-02-04T07:39:43;8.07;;;1.75;;
77280;SDS011;66339;47.262;17.144;2023-02-04T07:42:11;4.28;;;1.65;;
77280;SDS011;66339;47.262;17.144;2023-02-04T07:44:37;7.32;;;1.67;;
77280;SDS011;66339;47.262;17.144;2023-02-04T07:47:07;5.85;;;1.90;;
77280;SDS011;66339;47.262;17.144;2023-02-04T07:49:37;4.78;;;1.52;;
77280;SDS011;66339;47.262;17.144;2023-02-04T07:52:07;7.10;;;1.65;;
77280;SDS011;66339;47.262;17.144;2023-02-04T07:54:37;7.90;;;1.62;;
77280;SDS011;66339;47.262;17.144;2023-02-04T07:57:09;3.95;;;1.58;;
77280;SDS011;66339;47.262;17.144;2023-02-04T07:59:36;4.32;;;1.95;;
77280;SDS011;66339;47.262;17.144;2023-02-04T08:02:03;10.38;;;1.52;;
77280;SDS011;66339;47.262;17.144;2023-02-04T08:04:35;11.88;;;1.58;;
77280;SDS011;66339;47.262;17.144;2023-02-04T08:07:02;8.45;;;1.87;;
77280;SDS011;66339;47.262;17.144;2023-02-04T08:09:32;5.07;;;1.50;;
77280;SDS011;66339;47.262;17.144;2023-02-04T08:11:58;6.43;;;1.70;;
77280;SDS011;66339;47.262;17.144;2023-02-04T08:14:28;6.12;;;1.67;;
77280;SDS011;66339;47.262;17.144;2023-02-04T08:16:59;4.53;;;1.60;;
77280;SDS011;66339;47.262;17.144;2023-02-04T08:19:32;4.85;;;1.55;;
77280;SDS011;66339;47.262;17.144;2023-02-04T08:22:02;5.82;;;1.60;;
77280;SDS011;66339;47.262;17.144;2023-02-04T08:24:31;5.43;;;1.50;;
77280;SDS011;66339;47.262;17.144;2023-02-04T08:26:58;4.75;;;1.40;;
77280;SDS011;66339;47.262;17.144;2023-02-04T08:29:28;2.53;;;1.30;;
77280;SDS011;66339;47.262;17.144;2023-02-04T08:31:58;6.87;;;1.37;;
77280;SDS011;66339;47.262;17.144;2023-02-04T08:34:33;2.62;;;1.40;;
77280;SDS011;66339;47.262;17.144;2023-02-04T08:37:01;3.08;;;1.33;;
77280;SDS011;66339;47.262;17.144;2023-02-04T08:39:31;5.62;;;1.52;;
77280;SDS011;66339;47.262;17.144;2023-02-04T08:42:07;4.62;;;1.25;;
77280;SDS011;66339;47.262;17.144;2023-02-04T08:44:40;3.97;;;1.42;;
77280;SDS011;66339;47.262;17.144;2023-02-04T08:47:07;2.60;;;1.30;;
77280;SDS011;66339;47.262;17.144;2023-02-04T08:49:35;4.15;;;1.35;;
77280;SDS011;66339;47.262;17.144;2023-02-04T08:52:08;4.75;;;1.62;;
77280;SDS011;66339;47.262;17.144;2023-02-04T08:54:35;6.15;;;1.55;;
77280;SDS011;66339;47.262;17.144;2023-02-04T08:57:02;6.05;;;1.33;;
77280;SDS011;66339;47.262;17.144;2023-02-04T08:59:29;7.87;;;1.60;;
77280;SDS011;66339;47.262;17.144;2023-02-04T09:01:56;7.62;;;1.60;;
77280;SDS011;66339;47.262;17.144;2023-02-04T09:04:24;4.65;;;1.40;;
77280;SDS011;66339;47.262;17.144;2023-02-04T09:06:51;5.53;;;1.52;;
77280;SDS011;66339;47.262;17.144;2023-02-04T09:09:18;4.72;;;1.42;;
77280;SDS011;66339;47.262;17.144;2023-02-04T09:11:50;4.35;;;1.37;;
77280;SDS011;66339;47.262;17.144;2023-02-04T09:14:23;4.50;;;1.65;;
77280;SDS011;66339;47.262;17.144;2023-02-04T09:16:53;3.60;;;1.40;;
77280;SDS011;66339;47.262;17.144;2023-02-04T09:19:26;14.63;;;1.67;;
77280;SDS011;66339;47.262;17.144;2023-02-04T09:21:53;15.27;;;1.75;;
77280;SDS011;66339;47.262;17.144;2023-02-04T09:24:24;9.70;;;1.37;;
77280;SDS011;66339;47.262;17.144;2023-02-04T09:26:52;4.62;;;1.48;;
77280;SDS011;66339;47.262;17.144;2023-02-04T09:29:23;7.37;;;1.55;;
77280;SDS011;66339;47.262;17.144;2023-02-04T09:31:53;9.35;;;1.27;;
77280;SDS011;66339;47.262;17.144;2023-02-04T09:34:24;5.93;;;1.40;;
77280;SDS011;66339;47.262;17.144;2023-02-04T09:36:51;8.70;;;1.77;;
77280;SDS011;66339;47.262;17.144;2023-02-04T09:39:17;7.47;;;1.73;;
77280;SDS011;66339;47.262;17.144;2023-02-04T09:41:44;4.95;;;1.45;;
77280;SDS011;66339;47.262;17.144;2023-02-04T09:44:19;9.15;;;1.70;;
77280;SDS011;66339;47.262;17.144;2023-02-04T09:46:57;3.87;;;1.35;;
77280;SDS011;66339;47.262;17.144;2023-02-04T09:49:33;7.03;;;1.63;;
77280;SDS011;66339;47.262;17.144;2023-02-04T09:52:04;5.40;;;1.23;;
77280;SDS011;66339;47.262;17.144;2023-02-04T09:54:40;3.60;;;1.40;;
77280;SDS011;66339;47.262;17.144;2023-02-04T09:57:20;7.45;;;1.65;;
77280;SDS011;66339;47.262;17.144;2023-02-04T09:59:53;4.75;;;1.70;;
77280;SDS011;66339;47.262;17.144;2023-02-04T10:02:24;6.47;;;1.37;;
77280;SDS011;66339;47.262;17.144;2023-02-04T10:04:54;4.05;;;1.30;;
77280;SDS011;66339;47.262;17.144;2023-02-04T10:07:24;7.62;;;1.67;;
77280;SDS011;66339;47.262;17.144;2023-02-04T10:09:51;6.22;;;1.55;;
77280;SDS011;66339;47.262;17.144;2023-02-04T10:12:21;2.42;;;1.30;;
77280;SDS011;66339;47.262;17.144;2023-02-04T10:14:49;6.47;;;1.60;;
77280;SDS011;66339;47.262;17.144;2023-02-04T10:17:20;7.57;;;1.52;;
77280;SDS011;66339;47.262;17.144;2023-02-04T10:19:51;4.05;;;1.20;;
77280;SDS011;66339;47.262;17.144;2023-02-04T10:22:21;5.90;;;1.42;;
77280;SDS011;66339;47.262;17.144;2023-02-04T10:24:51;5.55;;;1.17;;
77280;SDS011;66339;47.262;17.144;2023-02-04T10:27:24;5.70;;;1.35;;
77280;SDS011;66339;47.262;17.144;2023-02-04T10:30:00;3.75;;;1.15;;
77280;SDS011;66339;47.262;17.144;2023-02-04T10:32:31;5.35;;;1.02;;
77280;SDS011;66339;47.262;17.144;2023-02-04T10:35:11;4.32;;;1.33;;
77280;SDS011;66339;47.262;17.144;2023-02-04T10:37:47;6.60;;;1.30;;
77280;SDS011;66339;47.262;17.144;2023-02-04T10:40:36;9.07;;;1.35;;
77280;SDS011;66339;47.262;17.144;2023-02-04T10:43:14;9.93;;;1.77;;
77280;SDS011;66339;47.262;17.144;2023-02-04T10:45:54;9.45;;;1.75;;
77280;SDS011;66339;47.262;17.144;2023-02-04T10:48:38;7.10;;;1.98;;
77280;SDS011;66339;47.262;17.144;2023-02-04T10:51:08;7.70;;;1.33;;
77280;SDS011;66339;47.262;17.144;2023-02-04T10:53:40;10.02;;;1.62;;
77280;SDS011;66339;47.262;17.144;2023-02-04T10:56:17;5.15;;;1.37;;
77280;SDS011;66339;47.262;17.144;2023-02-04T10:58:49;9.50;;;1.30;;
77280;SDS011;66339;47.262;17.144;2023-02-04T11:01:17;7.15;;;1.33;;
77280;SDS011;66339;47.262;17.144;2023-02-04T11:03:47;5.55;;;1.45;;
77280;SDS011;66339;47.262;17.144;2023-02-04T11:06:27;20.88;;;1.90;;
77280;SDS011;66339;47.262;17.144;2023-02-04T11:09:00;9.25;;;1.60;;
77280;SDS011;66339;47.262;17.144;2023-02-04T11:11:32;9.82;;;1.55;;
77280;SDS011;66339;47.262;17.144;2023-02-04T11:14:17;7.28;;;1.62;;
77280;SDS011;66339;47.262;17.144;2023-02-04T11:16:49;9.70;;;1.35;;
77280;SDS011;66339;47.262;17.144;2023-02-04T11:25:31;7.87;;;1.42;;
77280;SDS011;66339;47.262;17.144;2023-02-04T11:30:57;5.82;;;1.40;;
77280;SDS011;66339;47.262;17.144;2023-02-04T11:33:35;5.28;;;1.30;;
77280;SDS011;66339;47.262;17.144;2023-02-04T11:36:10;7.10;;;1.37;;
77280;SDS011;66339;47.262;17.144;2023-02-04T11:38:49;7.65;;;1.40;;
77280;SDS011;66339;47.262;17.144;2023-02-04T11:41:34;5.85;;;1.30;;
77280;SDS011;66339;47.262;17.144;2023-02-04T11:44:02;11.93;;;1.27;;
77280;SDS011;66339;47.262;17.144;2023-02-04T11:46:42;6.95;;;1.20;;
77280;SDS011;66339;47.262;17.144;2023-02-04T11:49:19;11.75;;;2.00;;
77280;SDS011;66339;47.262;17.144;2023-02-04T11:51:50;19.75;;;2.87;;
77280;SDS011;66339;47.262;17.144;2023-02-04T11:54:20;9.52;;;1.35;;
77280;SDS011;66339;47.262;17.144;2023-02-04T11:56:57;5.43;;;1.12;;
77280;SDS011;66339;47.262;17.144;2023-02-04T11:59:29;4.10;;;1.33;;
77280;SDS011;66339;47.262;17.144;2023-02-04T12:02:06;4.72;;;1.12;;
77280;SDS011;66339;47.262;17.144;2023-02-04T12:05:18;3.80;;;1.02;;
77280;SDS011;66339;47.262;17.144;2023-02-04T12:07:45;7.90;;;1.10;;
77280;SDS011;66339;47.262;17.144;2023-02-04T12:12:53;8.00;;;1.20;;
77280;SDS011;66339;47.262;17.144;2023-02-04T12:15:30;6.30;;;1.45;;
77280;SDS011;66339;47.262;17.144;2023-02-04T12:18:01;6.03;;;1.10;;
77280;SDS011;66339;47.262;17.144;2023-02-04T12:20:30;8.25;;;1.83;;
77280;SDS011;66339;47.262;17.144;2023-02-04T12:22:57;5.82;;;2.10;;
77280;SDS011;66339;47.262;17.144;2023-02-04T12:25:28;3.10;;;1.10;;
77280;SDS011;66339;47.262;17.144;2023-02-04T12:28:04;4.47;;;1.10;;
77280;SDS011;66339;47.262;17.144;2023-02-04T12:30:35;4.18;;;1.02;;
77280;SDS011;66339;47.262;17.144;2023-02-04T12:33:01;1.85;;;1.08;;
77280;SDS011;66339;47.262;17.144;2023-02-04T12:35:32;5.30;;;0.93;;
77280;SDS011;66339;47.262;17.144;2023-02-04T12:38:03;3.83;;;1.00;;
77280;SDS011;66339;47.262;17.144;2023-02-04T12:40:36;5.65;;;1.17;;
77280;SDS011;66339;47.262;17.144;2023-02-04T12:45:39;4.47;;;1.10;;
77280;SDS011;66339;47.262;17.144;2023-02-04T12:48:05;4.15;;;1.10;;
77280;SDS011;66339;47.262;17.144;2023-02-04T12:50:35;2.62;;;1.00;;
77280;SDS011;66339;47.262;17.144;2023-02-04T12:53:08;4.68;;;1.42;;
77280;SDS011;66339;47.262;17.144;2023-02-04T12:55:39;4.45;;;1.10;;
77280;SDS011;66339;47.262;17.144;2023-02-04T12:58:15;3.35;;;0.90;;
77280;SDS011;66339;47.262;17.144;2023-02-04T13:00:53;2.90;;;1.00;;
77280;SDS011;66339;47.262;17.144;2023-02-04T13:03:23;5.12;;;1.10;;
77280;SDS011;66339;47.262;17.144;2023-02-04T13:05:50;2.42;;;1.00;;
77280;SDS011;66339;47.262;17.144;2023-02-04T13:08:23;2.22;;;0.90;;
77280;SDS011;66339;47.262;17.144;2023-02-04T13:10:49;2.30;;;1.17;;
77280;SDS011;66339;47.262;17.144;2023-02-04T13:13:18;4.65;;;1.00;;
77280;SDS011;66339;47.262;17.144;2023-02-04T13:15:51;3.40;;;1.02;;
77280;SDS011;66339;47.262;17.144;2023-02-04T13:18:22;4.20;;;0.90;;
77280;SDS011;66339;47.262;17.144;2023-02-04T13:20:49;1.92;;;0.80;;
77280;SDS011;66339;47.262;17.144;2023-02-04T13:23:21;3.12;;;1.00;;
77280;SDS011;66339;47.262;17.144;2023-02-04T13:25:48;2.67;;;1.10;;
77280;SDS011;66339;47.262;17.144;2023-02-04T13:28:29;2.45;;;0.93;;
77280;SDS011;66339;47.262;17.144;2023-02-04T13:30:55;3.65;;;1.10;;
77280;SDS011;66339;47.262;17.144;2023-02-04T13:33:23;2.70;;;1.00;;
77280;SDS011;66339;47.262;17.144;2023-02-04T13:35:55;3.85;;;0.93;;
77280;SDS011;66339;47.262;17.144;2023-02-04T13:38:22;4.18;;;1.05;;
77280;SDS011;66339;47.262;17.144;2023-02-04T13:40:49;5.07;;;0.95;;
77280;SDS011;66339;47.262;17.144;2023-02-04T13:43:22;2.78;;;0.82;;
77280;SDS011;66339;47.262;17.144;2023-02-04T13:45:58;2.58;;;1.00;;
77280;SDS011;66339;47.262;17.144;2023-02-04T13:48:25;5.37;;;1.10;;
77280;SDS011;66339;47.262;17.144;2023-02-04T13:50:55;3.42;;;1.10;;
77280;SDS011;66339;47.262;17.144;2023-02-04T13:53:28;4.80;;;1.02;;
77280;SDS011;66339;47.262;17.144;2023-02-04T13:56:01;2.20;;;0.82;;
77280;SDS011;66339;47.262;17.144;2023-02-04T13:58:32;4.22;;;0.80;;
77280;SDS011;66339;47.262;17.144;2023-02-04T14:01:02;3.40;;;1.10;;
77280;SDS011;66339;47.262;17.144;2023-02-04T14:03:29;1.58;;;0.80;;
77280;SDS011;66339;47.262;17.144;2023-02-04T14:05:59;1.40;;;0.85;;
77280;SDS011;66339;47.262;17.144;2023-02-04T14:08:32;2.33;;;0.90;;
77280;SDS011;66339;47.262;17.144;2023-02-04T14:11:00;13.02;;;1.10;;
77280;SDS011;66339;47.262;17.144;2023-02-04T14:13:33;2.20;;;0.85;;
77280;SDS011;66339;47.262;17.144;2023-02-04T14:16:01;2.90;;;0.90;;
77280;SDS011;66339;47.262;17.144;2023-02-04T14:18:34;4.32;;;0.90;;
77280;SDS011;66339;47.262;17.144;2023-02-04T14:21:01;6.20;;;0.80;;
77280;SDS011;66339;47.262;17.144;2023-02-04T14:23:28;4.30;;;0.88;;
77280;SDS011;66339;47.262;17.144;2023-02-04T14:26:04;1.73;;;0.90;;
77280;SDS011;66339;47.262;17.144;2023-02-04T14:28:35;2.45;;;0.80;;
77280;SDS011;66339;47.262;17.144;2023-02-04T14:31:06;3.72;;;1.05;;
77280;SDS011;66339;47.262;17.144;2023-02-04T14:33:36;3.72;;;1.00;;
77280;SDS011;66339;47.262;17.144;2023-02-04T14:36:09;7.93;;;0.85;;
77280;SDS011;66339;47.262;17.144;2023-02-04T14:38:39;3.42;;;0.95;;
77280;SDS011;66339;47.262;17.144;2023-02-04T14:41:11;1.58;;;0.90;;
77280;SDS011;66339;47.262;17.144;2023-02-04T14:43:38;1.00;;;0.90;;
77280;SDS011;66339;47.262;17.144;2023-02-04T14:46:14;2.35;;;1.00;;
77280;SDS011;66339;47.262;17.144;2023-02-04T14:48:44;5.82;;;0.90;;
77280;SDS011;66339;47.262;17.144;2023-02-04T14:51:14;6.62;;;0.93;;
77280;SDS011;66339;47.262;17.144;2023-02-04T14:53:48;6.93;;;1.08;;
77280;SDS011;66339;47.262;17.144;2023-02-04T14:56:15;6.95;;;1.00;;
77280;SDS011;66339;47.262;17.144;2023-02-04T14:58:45;4.65;;;0.90;;
77280;SDS011;66339;47.262;17.144;2023-02-04T15:01:13;6.28;;;0.90;;
77280;SDS011;66339;47.262;17.144;2023-02-04T15:03:40;2.83;;;0.90;;
77280;SDS011;66339;47.262;17.144;2023-02-04T15:06:13;4.25;;;0.90;;